Oregon II — WTDO — position and weather

sailwx.info

Track history (hours):
 
Tides and Currents Weather Stations Pressure Air Temp Water Temp Dewpoint Dewpoint Depression Visibility Wind Speed Wind Dir Waves Ship Positions

Oceanographic research ship Oregon II (USA)

Detailed information on ship capabilities available from University of Delaware's Ocean Information Center.

Last reported at 2017-Jul-12 07:33 UTC. Time now 2017-Jul-23 16:35 UTC.
Position N 30°17' W 086°49'.
Warning: this ship's position is 11 days out of date.

Type: Other ship. MMSI: 303967000.

Date/timePositionNaut miles runAvg speedWind from/ knotsBaromVisibWave heightAir tempDewpointWater temp
2017-Jul-12 07:33N 30°17' W 086°49'0 8.6
2017-Jul-12 07:30N 30°17' W 086°49'  
2017-Jul-04 05:11N 30°18' W 086°19'0 2.1
2017-Jul-04 04:59N 30°18' W 086°19'2 3.2
2017-Jul-04 04:29N 30°18' W 086°17'1 2.4
2017-Jul-04 03:59N 30°18' W 086°16'3 4.6
2017-Jul-04 03:23N 30°18' W 086°19'3 8.8
2017-Jul-04 02:59N 30°18' W 086°23'3 6.7
2017-Jul-04 02:30N 30°18' W 086°27'2 3.4
2017-Jul-04 01:59N 30°19' W 086°29'1 2.7
2017-Jul-04 01:30N 30°18' W 086°30'3 6.2
2017-Jul-04 00:59N 30°18' W 086°34'15 8.3
2017-Jul-03 23:08N 30°19' W 086°52'  
Track history (hours):
 
Tides and Currents Weather Stations Pressure Air Temp Water Temp Dewpoint Dewpoint Depression Visibility Wind Speed Wind Dir Waves Ship Positions

Oceanographic research ship Oregon II (USA)

Detailed information on ship capabilities available from University of Delaware's Ocean Information Center.

Last reported at 2017-Jul-12 07:33 UTC. Time now 2017-Jul-23 16:35 UTC.
Position N 30°17' W 086°49'.
Warning: this ship's position is 11 days out of date.

Type: Other ship. MMSI: 303967000.

Date/timePositionNaut miles runAvg speedWind from/ knotsBaromVisibWave heightAir tempDewpointWater temp
2017-Jul-12 07:33N 30°17' W 086°49'0 8.6
2017-Jul-12 07:30N 30°17' W 086°49'  
2017-Jul-04 05:11N 30°18' W 086°19'0 2.1
2017-Jul-04 04:59N 30°18' W 086°19'2 3.2
2017-Jul-04 04:29N 30°18' W 086°17'1 2.4
2017-Jul-04 03:59N 30°18' W 086°16'3 4.6
2017-Jul-04 03:23N 30°18' W 086°19'3 8.8
2017-Jul-04 02:59N 30°18' W 086°23'3 6.7
2017-Jul-04 02:30N 30°18' W 086°27'2 3.4
2017-Jul-04 01:59N 30°19' W 086°29'1 2.7
2017-Jul-04 01:30N 30°18' W 086°30'3 6.2
2017-Jul-04 00:59N 30°18' W 086°34'15 8.3
2017-Jul-03 23:08N 30°19' W 086°52'  

Dump ship's entire track history